Time,TemperatureF,DewpointF,PressureIn,WindDirection,WindDirectionDegrees,WindSpeedMPH,WindSpeedGustMPH,Humidity,HourlyPrecipIn,Conditions,Clouds,dailyrainin,SoftwareType,DateUTC
2013-04-09 00:03:00,65.0,63.0,30.10,SSE,167,0.0,-999.0,92,-99.99,,,-99.99,,2013-04-09 10:03:00,
2013-04-09 00:12:00,65.0,63.0,30.10,SSE,167,0.0,-999.0,92,-99.99,,,-99.99,,2013-04-09 10:12:00,
2013-04-09 00:23:00,65.0,63.0,30.09,SSE,167,0.0,-999.0,93,-99.99,,,-99.99,,2013-04-09 10:23:00,
2013-04-09 00:32:00,65.0,63.0,30.09,SSE,167,0.0,-999.0,92,-99.99,,,-99.99,,2013-04-09 10:32:00,
2013-04-09 00:42:00,65.0,63.0,30.09,SSE,167,0.0,-999.0,92,-99.99,,,-99.99,,2013-04-09 10:42:00,
2013-04-09 00:52:00,64.0,62.0,30.09,SSE,167,0.0,-999.0,93,-99.99,,,-99.99,,2013-04-09 10:52:00,
2013-04-09 01:02:00,64.0,62.0,30.08,SSE,167,0.0,-999.0,93,-99.99,,,-99.99,,2013-04-09 11:02:00,
2013-04-09 01:12:00,64.0,62.0,30.08,SSE,167,0.0,-999.0,93,-99.99,,,-99.99,,2013-04-09 11:12:00,
2013-04-09 01:22:00,64.0,62.0,30.08,SSE,167,0.0,-999.0,93,-99.99,,,-99.99,,2013-04-09 11:22:00,
2013-04-09 01:32:00,64.0,62.0,30.07,SSE,167,0.0,-999.0,93,-99.99,,,-99.99,,2013-04-09 11:32:00,
2013-04-09 01:42:00,64.0,62.0,30.07,SSE,167,0.0,-999.0,93,-99.99,,,-99.99,,2013-04-09 11:42:00,
2013-04-09 01:51:00,64.0,62.0,30.07,SSE,167,0.0,-999.0,93,-99.99,,,-99.99,,2013-04-09 11:51:00,
2013-04-09 02:02:00,64.0,62.0,30.07,SSE,167,0.0,-999.0,93,-99.99,,,-99.99,,2013-04-09 12:02:00,
2013-04-09 02:12:00,64.0,62.0,30.07,SSE,167,0.0,-999.0,93,-99.99,,,-99.99,,2013-04-09 12:12:00,
2013-04-09 02:22:00,64.0,62.0,30.06,SSE,167,0.0,-999.0,93,-99.99,,,-99.99,,2013-04-09 12:22:00,
2013-04-09 02:32:00,64.0,62.0,30.06,SSE,167,0.0,-999.0,93,-99.99,,,-99.99,,2013-04-09 12:32:00,
2013-04-09 02:42:00,64.0,62.0,30.06,SSE,167,0.0,-999.0,93,-99.99,,,-99.99,,2013-04-09 12:42:00,
2013-04-09 02:52:00,64.0,62.0,30.05,SSE,167,0.0,-999.0,93,-99.99,,,-99.99,,2013-04-09 12:52:00,
2013-04-09 03:02:00,64.0,62.0,30.04,SSE,167,0.0,-999.0,93,-99.99,,,-99.99,,2013-04-09 13:02:00,
2013-04-09 03:12:00,64.0,62.0,30.04,SSE,167,0.0,-999.0,93,-99.99,,,-99.99,,2013-04-09 13:12:00,
2013-04-09 03:22:00,64.0,62.0,30.04,SSE,167,0.0,-999.0,94,-99.99,,,-99.99,,2013-04-09 13:22:00,
2013-04-09 03:32:00,64.0,62.0,30.03,SSE,167,0.0,-999.0,94,-99.99,,,-99.99,,2013-04-09 13:32:00,
2013-04-09 03:42:00,64.0,62.0,30.03,SSE,167,0.0,-999.0,94,-99.99,,,-99.99,,2013-04-09 13:42:00,
2013-04-09 04:02:00,64.0,62.0,30.03,SSE,167,0.0,-999.0,94,-99.99,,,-99.99,,2013-04-09 14:02:00,
2013-04-09 04:12:00,64.0,62.0,30.03,SSE,167,0.0,-999.0,94,-99.99,,,-99.99,,2013-04-09 14:12:00,
2013-04-09 04:21:00,64.0,62.0,30.03,SSE,167,0.0,-999.0,94,-99.99,,,-99.99,,2013-04-09 14:21:00,
2013-04-09 04:32:00,64.0,62.0,30.03,SSE,167,0.0,-999.0,94,-99.99,,,-99.99,,2013-04-09 14:32:00,
2013-04-09 04:42:00,64.0,62.0,30.03,SSE,167,0.0,-999.0,94,-99.99,,,-99.99,,2013-04-09 14:42:00,
2013-04-09 04:51:00,64.0,62.0,30.02,SSE,167,0.0,-999.0,94,-99.99,,,-99.99,,2013-04-09 14:51:00,
2013-04-09 05:02:00,64.0,62.0,30.03,SSE,167,0.0,-999.0,94,-99.99,,,-99.99,,2013-04-09 15:02:00,
2013-04-09 05:12:00,64.0,62.0,30.03,SSE,167,0.0,-999.0,94,-99.99,,,-99.99,,2013-04-09 15:12:00,
2013-04-09 05:22:00,64.0,62.0,30.03,SSE,167,0.0,-999.0,94,-99.99,,,-99.99,,2013-04-09 15:22:00,
2013-04-09 05:33:00,64.0,62.0,30.03,SSE,167,0.0,-999.0,94,-99.99,,,-99.99,,2013-04-09 15:33:00,
2013-04-09 05:43:00,64.0,62.0,30.03,SSE,167,0.0,-999.0,94,-99.99,,,-99.99,,2013-04-09 15:43:00,
2013-04-09 05:52:00,64.0,62.0,30.04,SSE,167,0.0,-999.0,94,-99.99,,,-99.99,,2013-04-09 15:52:00,
2013-04-09 06:03:00,64.0,62.0,30.04,SSE,167,0.0,-999.0,94,-99.99,,,-99.99,,2013-04-09 16:03:00,
2013-04-09 06:12:00,64.0,62.0,30.04,SSE,167,0.0,-999.0,94,-99.99,,,-99.99,,2013-04-09 16:12:00,
2013-04-09 06:22:00,63.0,62.0,30.04,SSE,167,0.0,-999.0,95,-99.99,,,-99.99,,2013-04-09 16:22:00,
2013-04-09 06:32:00,63.0,61.0,30.05,SSE,167,0.0,-999.0,94,-99.99,,,-99.99,,2013-04-09 16:32:00,
2013-04-09 06:42:00,63.0,61.0,30.05,SSE,167,0.0,-999.0,94,-99.99,,,-99.99,,2013-04-09 16:42:00,
2013-04-09 06:52:00,63.0,61.0,30.05,SSE,167,0.0,-999.0,94,-99.99,,,-99.99,,2013-04-09 16:52:00,
2013-04-09 07:02:00,64.0,62.0,30.06,WSW,253,0.0,-999.0,94,-99.99,,,-99.99,,2013-04-09 17:02:00,
2013-04-09 07:12:00,64.0,62.0,30.06,WSW,253,0.0,-999.0,94,-99.99,,,-99.99,,2013-04-09 17:12:00,
2013-04-09 07:22:00,65.0,63.0,30.06,WSW,253,0.0,-999.0,94,-99.99,,,-99.99,,2013-04-09 17:22:00,
2013-04-09 07:32:00,66.0,65.0,30.06,WSW,253,0.0,-999.0,95,-99.99,,,-99.99,,2013-04-09 17:32:00,
2013-04-09 07:42:00,66.0,65.0,30.06,WSW,253,0.0,-999.0,95,-99.99,,,-99.99,,2013-04-09 17:42:00,
2013-04-09 07:53:00,68.0,67.0,30.06,WSW,253,0.0,-999.0,95,-99.99,,,-99.99,,2013-04-09 17:53:00,
2013-04-09 08:02:00,69.0,67.0,30.07,WSW,253,0.0,-999.0,94,-99.99,,,-99.99,,2013-04-09 18:02:00,
2013-04-09 08:12:00,69.0,67.0,30.07,WSW,253,0.0,-999.0,94,-99.99,,,-99.99,,2013-04-09 18:12:00,
2013-04-09 08:22:00,70.0,68.0,30.07,WSW,253,0.0,-999.0,93,-99.99,,,-99.99,,2013-04-09 18:22:00,
2013-04-09 08:32:00,71.0,68.0,30.07,WSW,253,0.0,-999.0,89,-99.99,,,-99.99,,2013-04-09 18:32:00,
2013-04-09 08:42:00,71.0,68.0,30.07,WSW,253,0.0,-999.0,89,-99.99,,,-99.99,,2013-04-09 18:42:00,
2013-04-09 08:52:00,73.0,68.0,30.07,WSW,237,0.0,-999.0,83,-99.99,,,-99.99,,2013-04-09 18:52:00,
2013-04-09 09:02:00,73.0,68.0,30.07,WSW,237,0.0,-999.0,83,-99.99,,,-99.99,,2013-04-09 19:02:00,
2013-04-09 09:11:00,73.0,68.0,30.07,WSW,237,0.0,-999.0,83,-99.99,,,-99.99,,2013-04-09 19:11:00,
2013-04-09 09:32:00,74.0,67.0,30.07,East,86,0.0,-999.0,80,-99.99,,,-99.99,,2013-04-09 19:32:00,
2013-04-09 09:41:00,74.0,67.0,30.07,East,86,0.0,-999.0,80,-99.99,,,-99.99,,2013-04-09 19:41:00,
2013-04-09 09:51:00,75.0,67.0,30.08,East,86,0.0,-999.0,77,-99.99,,,-99.99,,2013-04-09 19:51:00,
2013-04-09 10:02:00,74.0,67.0,30.07,NE,40,0.0,-999.0,78,-99.99,,,-99.99,,2013-04-09 20:02:00,
2013-04-09 10:12:00,74.0,67.0,30.07,NE,40,0.0,-999.0,78,-99.99,,,-99.99,,2013-04-09 20:12:00,
2013-04-09 10:22:00,75.0,66.0,30.07,ENE,61,0.0,-999.0,74,-99.99,,,-99.99,,2013-04-09 20:22:00,
2013-04-09 10:32:00,77.0,67.0,30.06,ENE,76,1.0,-999.0,71,-99.99,,,-99.99,,2013-04-09 20:32:00,
2013-04-09 10:42:00,77.0,67.0,30.06,ENE,76,1.0,-999.0,71,-99.99,,,-99.99,,2013-04-09 20:42:00,
2013-04-09 10:52:00,76.0,67.0,30.06,NNE,14,1.0,-999.0,75,-99.99,,,-99.99,,2013-04-09 20:52:00,
2013-04-09 11:02:00,77.0,67.0,30.06,NNE,30,2.0,-999.0,71,-99.99,,,-99.99,,2013-04-09 21:02:00,
2013-04-09 11:12:00,77.0,67.0,30.06,NNE,30,2.0,-999.0,71,-99.99,,,-99.99,,2013-04-09 21:12:00,
2013-04-09 11:22:00,77.0,67.0,30.06,NNE,30,2.0,-999.0,71,-99.99,,,-99.99,,2013-04-09 21:22:00,
2013-04-09 11:32:00,77.0,67.0,30.05,ESE,105,3.0,-999.0,72,-99.99,,,-99.99,,2013-04-09 21:32:00,
2013-04-09 11:42:00,77.0,67.0,30.05,ESE,105,3.0,-999.0,72,-99.99,,,-99.99,,2013-04-09 21:42:00,
2013-04-09 11:52:00,79.0,68.0,30.05,North,355,2.0,-999.0,69,-99.99,,,-99.99,,2013-04-09 21:52:00,
2013-04-09 12:02:00,78.0,64.0,30.04,ENE,58,4.0,-999.0,63,-99.99,,,-99.99,,2013-04-09 22:02:00,
2013-04-09 12:12:00,78.0,64.0,30.04,ENE,58,4.0,-999.0,63,-99.99,,,-99.99,,2013-04-09 22:12:00,
2013-04-09 12:22:00,79.0,67.0,30.04,North,355,3.0,-999.0,67,-99.99,,,-99.99,,2013-04-09 22:22:00,
2013-04-09 12:32:00,78.0,66.0,30.04,ESE,107,4.0,-999.0,66,-99.99,,,-99.99,,2013-04-09 22:32:00,
2013-04-09 12:42:00,78.0,66.0,30.04,ESE,107,4.0,-999.0,66,-99.99,,,-99.99,,2013-04-09 22:42:00,
2013-04-09 12:52:00,79.0,68.0,30.03,SE,134,2.0,-999.0,68,-99.99,,,-99.99,,2013-04-09 22:52:00,
2013-04-09 13:02:00,78.0,67.0,30.03,NE,56,5.0,-999.0,69,-99.99,,,-99.99,,2013-04-09 23:02:00,
2013-04-09 13:12:00,79.0,66.0,30.02,North,355,3.0,-999.0,65,-99.99,,,-99.99,,2013-04-09 23:12:00,
2013-04-09 13:22:00,79.0,66.0,30.02,North,355,3.0,-999.0,65,-99.99,,,-99.99,,2013-04-09 23:22:00,
2013-04-09 13:32:00,79.0,68.0,30.02,NNE,26,3.0,-999.0,68,-99.99,,,-99.99,,2013-04-09 23:32:00,
2013-04-09 13:42:00,79.0,68.0,30.02,NNE,26,3.0,-999.0,68,-99.99,,,-99.99,,2013-04-09 23:42:00,
2013-04-09 13:52:00,79.0,66.0,30.01,North,355,3.0,-999.0,65,-99.99,,,-99.99,,2013-04-09 23:52:00,
2013-04-09 14:12:00,79.0,66.0,30.01,North,355,3.0,-999.0,65,-99.99,,,-99.99,,2013-04-10 00:12:00,
2013-04-09 14:22:00,79.0,68.0,30.00,NNE,33,4.0,-999.0,69,-99.99,,,-99.99,,2013-04-10 00:22:00,
2013-04-09 14:32:00,79.0,67.0,29.99,North,355,3.0,-999.0,67,-99.99,,,-99.99,,2013-04-10 00:32:00,
2013-04-09 14:42:00,79.0,67.0,29.99,North,355,3.0,-999.0,67,-99.99,,,-99.99,,2013-04-10 00:42:00,
2013-04-09 14:51:00,79.0,68.0,29.99,NNE,26,3.0,-999.0,70,-99.99,,,-99.99,,2013-04-10 00:51:00,
2013-04-09 15:01:00,78.0,67.0,30.00,NNE,33,5.0,-999.0,69,-99.99,,,-99.99,,2013-04-10 01:01:00,
2013-04-09 15:12:00,78.0,67.0,29.99,NE,51,4.0,-999.0,68,-99.99,,,-99.99,,2013-04-10 01:12:00,
2013-04-09 15:22:00,78.0,67.0,29.99,NE,51,4.0,-999.0,68,-99.99,,,-99.99,,2013-04-10 01:22:00,
2013-04-09 15:32:00,79.0,68.0,29.99,North,5,2.0,-999.0,68,-99.99,,,-99.99,,2013-04-10 01:32:00,
2013-04-09 15:42:00,79.0,68.0,29.99,North,5,2.0,-999.0,68,-99.99,,,-99.99,,2013-04-10 01:42:00,
2013-04-09 15:52:00,77.0,65.0,29.99,ENE,63,4.0,-999.0,67,-99.99,,,-99.99,,2013-04-10 01:52:00,
2013-04-09 16:01:00,77.0,66.0,29.99,NNE,22,2.0,-999.0,69,-99.99,,,-99.99,,2013-04-10 02:01:00,
2013-04-09 16:12:00,77.0,66.0,29.99,NNE,22,2.0,-999.0,69,-99.99,,,-99.99,,2013-04-10 02:12:00,
2013-04-09 16:22:00,76.0,64.0,29.99,North,9,3.0,-999.0,67,-99.99,,,-99.99,,2013-04-10 02:22:00,
2013-04-09 16:32:00,77.0,66.0,30.00,ENE,69,3.0,-999.0,70,-99.99,,,-99.99,,2013-04-10 02:32:00,
2013-04-09 16:42:00,77.0,66.0,30.00,ENE,69,3.0,-999.0,70,-99.99,,,-99.99,,2013-04-10 02:42:00,
2013-04-09 16:51:00,76.0,64.0,30.00,NE,55,2.0,-999.0,66,-99.99,,,-99.99,,2013-04-10 02:51:00,
2013-04-09 17:02:00,76.0,64.0,30.00,NNE,19,1.0,-999.0,67,-99.99,,,-99.99,,2013-04-10 03:02:00,
2013-04-09 17:12:00,76.0,64.0,30.00,NNE,19,1.0,-999.0,67,-99.99,,,-99.99,,2013-04-10 03:12:00,
2013-04-09 17:22:00,75.0,65.0,30.01,NNE,28,1.0,-999.0,70,-99.99,,,-99.99,,2013-04-10 03:22:00,
2013-04-09 17:32:00,74.0,64.0,30.01,NNW,346,2.0,-999.0,70,-99.99,,,-99.99,,2013-04-10 03:32:00,
2013-04-09 17:43:00,74.0,64.0,30.01,NNW,346,2.0,-999.0,70,-99.99,,,-99.99,,2013-04-10 03:43:00,
2013-04-09 17:52:00,74.0,65.0,30.02,ENE,59,1.0,-999.0,73,-99.99,,,-99.99,,2013-04-10 03:52:00,
2013-04-09 18:02:00,73.0,64.0,30.03,ENE,76,1.0,-999.0,74,-99.99,,,-99.99,,2013-04-10 04:02:00,
2013-04-09 18:13:00,73.0,64.0,30.03,ENE,76,1.0,-999.0,74,-99.99,,,-99.99,,2013-04-10 04:13:00,
2013-04-09 18:22:00,73.0,65.0,30.03,NNE,23,0.0,-999.0,77,-99.99,,,-99.99,,2013-04-10 04:22:00,
2013-04-09 18:33:00,73.0,66.0,30.03,NNE,28,1.0,-999.0,79,-99.99,,,-99.99,,2013-04-10 04:33:00,
2013-04-09 18:42:00,73.0,66.0,30.03,NNE,28,1.0,-999.0,79,-99.99,,,-99.99,,2013-04-10 04:42:00,
2013-04-09 18:52:00,72.0,65.0,30.03,NNE,28,0.0,-999.0,80,-99.99,,,-99.99,,2013-04-10 04:52:00,
2013-04-09 19:02:00,72.0,66.0,30.04,NNE,28,0.0,-999.0,81,-99.99,,,-99.99,,2013-04-10 05:02:00,
2013-04-09 19:12:00,72.0,66.0,30.04,NNE,28,0.0,-999.0,81,-99.99,,,-99.99,,2013-04-10 05:12:00,
2013-04-09 19:22:00,70.0,65.0,30.05,NNE,28,0.0,-999.0,83,-99.99,,,-99.99,,2013-04-10 05:22:00,
2013-04-09 19:32:00,69.0,65.0,30.06,NNE,28,0.0,-999.0,86,-99.99,,,-99.99,,2013-04-10 05:32:00,
2013-04-09 19:42:00,69.0,65.0,30.06,NNE,28,0.0,-999.0,86,-99.99,,,-99.99,,2013-04-10 05:42:00,
2013-04-09 19:52:00,68.0,64.0,30.06,NNE,28,0.0,-999.0,88,-99.99,,,-99.99,,2013-04-10 05:52:00,
2013-04-09 20:02:00,68.0,65.0,30.07,NNE,28,0.0,-999.0,89,-99.99,,,-99.99,,2013-04-10 06:02:00,
2013-04-09 20:12:00,67.0,64.0,30.07,NNE,28,0.0,-999.0,89,-99.99,,,-99.99,,2013-04-10 06:12:00,
2013-04-09 20:22:00,67.0,64.0,30.07,NNE,28,0.0,-999.0,89,-99.99,,,-99.99,,2013-04-10 06:22:00,
2013-04-09 20:32:00,66.0,63.0,30.08,NNE,28,0.0,-999.0,90,-99.99,,,-99.99,,2013-04-10 06:32:00,
2013-04-09 20:42:00,66.0,63.0,30.08,NNE,28,0.0,-999.0,90,-99.99,,,-99.99,,2013-04-10 06:42:00,
2013-04-09 20:52:00,66.0,63.0,30.09,NNE,28,0.0,-999.0,91,-99.99,,,-99.99,,2013-04-10 06:52:00,
2013-04-09 21:02:00,66.0,63.0,30.09,NNE,28,0.0,-999.0,91,-99.99,,,-99.99,,2013-04-10 07:02:00,
2013-04-09 21:12:00,66.0,63.0,30.09,NNE,28,0.0,-999.0,91,-99.99,,,-99.99,,2013-04-10 07:12:00,
2013-04-09 21:22:00,65.0,63.0,30.10,NNE,28,0.0,-999.0,92,-99.99,,,-99.99,,2013-04-10 07:22:00,
2013-04-09 21:32:00,65.0,63.0,30.10,NNE,28,0.0,-999.0,92,-99.99,,,-99.99,,2013-04-10 07:32:00,
2013-04-09 21:42:00,65.0,63.0,30.10,NNE,28,0.0,-999.0,92,-99.99,,,-99.99,,2013-04-10 07:42:00,
2013-04-09 21:52:00,65.0,63.0,30.10,NNE,28,0.0,-999.0,92,-99.99,,,-99.99,,2013-04-10 07:52:00,
2013-04-09 22:02:00,65.0,63.0,30.11,NNE,28,0.0,-999.0,92,-99.99,,,-99.99,,2013-04-10 08:02:00,
2013-04-09 22:12:00,65.0,63.0,30.11,NNE,28,0.0,-999.0,92,-99.99,,,-99.99,,2013-04-10 08:12:00,
2013-04-09 22:32:00,64.0,62.0,30.12,NNE,28,0.0,-999.0,93,-99.99,,,-99.99,,2013-04-10 08:32:00,
2013-04-09 22:42:00,64.0,62.0,30.12,NNE,28,0.0,-999.0,93,-99.99,,,-99.99,,2013-04-10 08:42:00,
2013-04-09 22:51:00,65.0,63.0,30.12,NNE,28,0.0,-999.0,93,-99.99,,,-99.99,,2013-04-10 08:51:00,
2013-04-09 23:02:00,65.0,63.0,30.12,NNE,28,0.0,-999.0,93,-99.99,,,-99.99,,2013-04-10 09:02:00,
2013-04-09 23:12:00,65.0,63.0,30.11,NNE,28,0.0,-999.0,93,-99.99,,,-99.99,,2013-04-10 09:12:00,
2013-04-09 23:22:00,65.0,63.0,30.11,NNE,28,0.0,-999.0,93,-99.99,,,-99.99,,2013-04-10 09:22:00,
2013-04-09 23:32:00,65.0,63.0,30.11,NNE,28,0.0,-999.0,93,-99.99,,,-99.99,,2013-04-10 09:32:00,
2013-04-09 23:42:00,65.0,63.0,30.11,NNE,28,0.0,-999.0,93,-99.99,,,-99.99,,2013-04-10 09:42:00,
2013-04-09 23:52:00,64.0,62.0,30.11,NNE,28,0.0,-999.0,93,-99.99,,,-99.99,,2013-04-10 09:52:00,